sensor_id;sensor_type;location;lat;lon;timestamp;temperature;humidity
7341;DHT22;6870;50.944;6.932;2024-01-06T00:00:08;20.00;39.90
7341;DHT22;6870;50.944;6.932;2024-01-06T00:02:36;20.20;40.10
7341;DHT22;6870;50.944;6.932;2024-01-06T00:05:05;20.20;39.30
7341;DHT22;6870;50.944;6.932;2024-01-06T00:07:34;20.30;39.90
7341;DHT22;6870;50.944;6.932;2024-01-06T00:10:02;20.20;39.30
7341;DHT22;6870;50.944;6.932;2024-01-06T00:12:30;20.40;40.10
7341;DHT22;6870;50.944;6.932;2024-01-06T00:15:00;20.20;39.60
7341;DHT22;6870;50.944;6.932;2024-01-06T00:17:28;20.30;39.30
7341;DHT22;6870;50.944;6.932;2024-01-06T00:19:56;20.40;39.40
7341;DHT22;6870;50.944;6.932;2024-01-06T00:22:24;20.20;39.10
7341;DHT22;6870;50.944;6.932;2024-01-06T00:24:52;20.20;39.50
7341;DHT22;6870;50.944;6.932;2024-01-06T00:27:21;20.40;39.80
7341;DHT22;6870;50.944;6.932;2024-01-06T00:29:49;20.70;39.60
7341;DHT22;6870;50.944;6.932;2024-01-06T00:32:18;20.30;39.20
7341;DHT22;6870;50.944;6.932;2024-01-06T00:34:46;20.40;39.30
7341;DHT22;6870;50.944;6.932;2024-01-06T00:37:14;20.20;39.10
7341;DHT22;6870;50.944;6.932;2024-01-06T00:39:43;20.40;39.40
7341;DHT22;6870;50.944;6.932;2024-01-06T00:42:11;20.50;39.20
7341;DHT22;6870;50.944;6.932;2024-01-06T00:44:39;20.30;39.20
7341;DHT22;6870;50.944;6.932;2024-01-06T00:47:07;20.40;39.60
7341;DHT22;6870;50.944;6.932;2024-01-06T00:49:36;20.40;39.30
7341;DHT22;6870;50.944;6.932;2024-01-06T00:52:05;20.70;39.50
7341;DHT22;6870;50.944;6.932;2024-01-06T00:54:33;20.20;39.70
7341;DHT22;6870;50.944;6.932;2024-01-06T00:57:01;20.60;39.50
7341;DHT22;6870;50.944;6.932;2024-01-06T00:59:29;20.50;39.50
7341;DHT22;6870;50.944;6.932;2024-01-06T01:01:57;20.40;39.80
7341;DHT22;6870;50.944;6.932;2024-01-06T01:04:25;20.20;39.10
7341;DHT22;6870;50.944;6.932;2024-01-06T01:06:55;20.40;39.80
7341;DHT22;6870;50.944;6.932;2024-01-06T01:09:23;20.60;39.70
7341;DHT22;6870;50.944;6.932;2024-01-06T01:11:51;20.70;40.20
7341;DHT22;6870;50.944;6.932;2024-01-06T01:14:19;20.60;39.60
7341;DHT22;6870;50.944;6.932;2024-01-06T01:16:47;20.50;39.40
7341;DHT22;6870;50.944;6.932;2024-01-06T01:19:15;20.70;40.10
7341;DHT22;6870;50.944;6.932;2024-01-06T01:21:43;20.30;39.80
7341;DHT22;6870;50.944;6.932;2024-01-06T01:24:13;20.40;39.60
7341;DHT22;6870;50.944;6.932;2024-01-06T01:26:41;20.50;40.20
7341;DHT22;6870;50.944;6.932;2024-01-06T01:29:09;20.30;39.90
7341;DHT22;6870;50.944;6.932;2024-01-06T01:31:37;20.40;39.40
7341;DHT22;6870;50.944;6.932;2024-01-06T01:34:05;20.40;39.70
7341;DHT22;6870;50.944;6.932;2024-01-06T01:36:33;20.20;39.70
7341;DHT22;6870;50.944;6.932;2024-01-06T01:39:01;20.20;39.70
7341;DHT22;6870;50.944;6.932;2024-01-06T01:41:31;20.40;40.10
7341;DHT22;6870;50.944;6.932;2024-01-06T01:43:59;20.30;40.10
7341;DHT22;6870;50.944;6.932;2024-01-06T01:46:28;20.50;40.30
7341;DHT22;6870;50.944;6.932;2024-01-06T01:48:59;20.40;40.70
7341;DHT22;6870;50.944;6.932;2024-01-06T01:51:30;20.30;40.90
7341;DHT22;6870;50.944;6.932;2024-01-06T01:54:01;20.30;40.90
7341;DHT22;6870;50.944;6.932;2024-01-06T01:56:31;20.30;40.50
7341;DHT22;6870;50.944;6.932;2024-01-06T01:59:02;20.30;40.60
7341;DHT22;6870;50.944;6.932;2024-01-06T02:01:33;20.20;41.00
7341;DHT22;6870;50.944;6.932;2024-01-06T02:04:01;20.20;40.50
7341;DHT22;6870;50.944;6.932;2024-01-06T02:06:30;20.40;40.80
7341;DHT22;6870;50.944;6.932;2024-01-06T02:08:58;20.40;40.70
7341;DHT22;6870;50.944;6.932;2024-01-06T02:11:26;20.40;41.00
7341;DHT22;6870;50.944;6.932;2024-01-06T02:13:55;20.20;40.90
7341;DHT22;6870;50.944;6.932;2024-01-06T02:16:23;20.30;40.90
7341;DHT22;6870;50.944;6.932;2024-01-06T02:18:51;20.10;40.70
7341;DHT22;6870;50.944;6.932;2024-01-06T02:21:21;20.50;40.90
7341;DHT22;6870;50.944;6.932;2024-01-06T02:23:51;20.50;41.10
7341;DHT22;6870;50.944;6.932;2024-01-06T02:26:19;20.70;41.80
7341;DHT22;6870;50.944;6.932;2024-01-06T02:28:47;20.50;41.20
7341;DHT22;6870;50.944;6.932;2024-01-06T02:31:15;20.30;41.10
7341;DHT22;6870;50.944;6.932;2024-01-06T02:33:44;20.30;41.00
7341;DHT22;6870;50.944;6.932;2024-01-06T02:36:12;20.20;40.90
7341;DHT22;6870;50.944;6.932;2024-01-06T02:38:39;20.20;41.00
7341;DHT22;6870;50.944;6.932;2024-01-06T02:41:09;20.20;41.00
7341;DHT22;6870;50.944;6.932;2024-01-06T02:43:37;20.40;41.00
7341;DHT22;6870;50.944;6.932;2024-01-06T02:46:06;20.30;41.60
7341;DHT22;6870;50.944;6.932;2024-01-06T02:48:34;20.30;41.60
7341;DHT22;6870;50.944;6.932;2024-01-06T02:51:03;20.50;41.30
7341;DHT22;6870;50.944;6.932;2024-01-06T02:53:31;20.30;41.40
7341;DHT22;6870;50.944;6.932;2024-01-06T02:55:59;20.30;41.00
7341;DHT22;6870;50.944;6.932;2024-01-06T02:58:28;20.50;41.40
7341;DHT22;6870;50.944;6.932;2024-01-06T03:00:56;20.40;41.30
7341;DHT22;6870;50.944;6.932;2024-01-06T03:03:26;20.20;41.20
7341;DHT22;6870;50.944;6.932;2024-01-06T03:05:54;20.10;41.30
7341;DHT22;6870;50.944;6.932;2024-01-06T03:08:22;20.30;41.50
7341;DHT22;6870;50.944;6.932;2024-01-06T03:10:50;20.30;41.30
7341;DHT22;6870;50.944;6.932;2024-01-06T03:13:18;20.20;41.40
7341;DHT22;6870;50.944;6.932;2024-01-06T03:15:48;20.30;40.40
7341;DHT22;6870;50.944;6.932;2024-01-06T03:18:16;20.30;40.20
7341;DHT22;6870;50.944;6.932;2024-01-06T03:20:44;19.20;33.00
7341;DHT22;6870;50.944;6.932;2024-01-06T03:23:12;19.50;36.10
7341;DHT22;6870;50.944;6.932;2024-01-06T03:25:40;19.60;35.30
7341;DHT22;6870;50.944;6.932;2024-01-06T03:28:08;19.50;35.00
7341;DHT22;6870;50.944;6.932;2024-01-06T03:30:36;19.70;34.80
7341;DHT22;6870;50.944;6.932;2024-01-06T03:33:06;19.60;35.20
7341;DHT22;6870;50.944;6.932;2024-01-06T03:35:34;19.80;35.10
7341;DHT22;6870;50.944;6.932;2024-01-06T03:38:02;19.80;35.70
7341;DHT22;6870;50.944;6.932;2024-01-06T03:40:31;19.60;35.50
7341;DHT22;6870;50.944;6.932;2024-01-06T03:42:59;19.60;35.30
7341;DHT22;6870;50.944;6.932;2024-01-06T03:45:27;19.60;35.50
7341;DHT22;6870;50.944;6.932;2024-01-06T03:47:55;19.80;35.70
7341;DHT22;6870;50.944;6.932;2024-01-06T03:50:24;19.70;36.70
7341;DHT22;6870;50.944;6.932;2024-01-06T03:52:52;19.90;37.00
7341;DHT22;6870;50.944;6.932;2024-01-06T03:55:20;19.80;37.00
7341;DHT22;6870;50.944;6.932;2024-01-06T03:57:48;19.40;36.70
7341;DHT22;6870;50.944;6.932;2024-01-06T04:00:17;19.80;36.80
7341;DHT22;6870;50.944;6.932;2024-01-06T04:02:45;19.50;37.10
7341;DHT22;6870;50.944;6.932;2024-01-06T04:05:13;19.80;37.20
7341;DHT22;6870;50.944;6.932;2024-01-06T04:07:43;19.70;37.40
7341;DHT22;6870;50.944;6.932;2024-01-06T04:10:11;19.70;37.50
7341;DHT22;6870;50.944;6.932;2024-01-06T04:12:39;19.80;37.10
7341;DHT22;6870;50.944;6.932;2024-01-06T04:15:08;19.80;37.70
7341;DHT22;6870;50.944;6.932;2024-01-06T04:17:36;19.60;37.00
7341;DHT22;6870;50.944;6.932;2024-01-06T04:20:05;19.80;37.30
7341;DHT22;6870;50.944;6.932;2024-01-06T04:22:34;19.60;37.90
7341;DHT22;6870;50.944;6.932;2024-01-06T04:25:04;19.70;38.00
7341;DHT22;6870;50.944;6.932;2024-01-06T04:27:32;19.70;37.90
7341;DHT22;6870;50.944;6.932;2024-01-06T04:30:01;19.80;38.10
7341;DHT22;6870;50.944;6.932;2024-01-06T04:32:30;19.80;37.90
7341;DHT22;6870;50.944;6.932;2024-01-06T04:34:58;19.60;37.90
7341;DHT22;6870;50.944;6.932;2024-01-06T04:37:26;20.00;38.10
7341;DHT22;6870;50.944;6.932;2024-01-06T04:39:55;19.80;38.00
7341;DHT22;6870;50.944;6.932;2024-01-06T04:42:25;19.70;38.10
7341;DHT22;6870;50.944;6.932;2024-01-06T04:44:53;19.70;39.00
7341;DHT22;6870;50.944;6.932;2024-01-06T04:47:21;19.70;38.90
7341;DHT22;6870;50.944;6.932;2024-01-06T04:49:49;19.90;39.10
7341;DHT22;6870;50.944;6.932;2024-01-06T04:52:17;19.80;38.90
7341;DHT22;6870;50.944;6.932;2024-01-06T04:54:45;20.10;39.20
7341;DHT22;6870;50.944;6.932;2024-01-06T04:57:14;19.70;38.40
7341;DHT22;6870;50.944;6.932;2024-01-06T04:59:44;20.10;39.20
7341;DHT22;6870;50.944;6.932;2024-01-06T05:02:12;19.80;39.10
7341;DHT22;6870;50.944;6.932;2024-01-06T05:04:41;20.10;39.40
7341;DHT22;6870;50.944;6.932;2024-01-06T05:07:09;20.10;39.40
7341;DHT22;6870;50.944;6.932;2024-01-06T05:09:37;19.90;38.90
7341;DHT22;6870;50.944;6.932;2024-01-06T05:12:05;20.20;38.70
7341;DHT22;6870;50.944;6.932;2024-01-06T05:14:34;19.90;38.70
7341;DHT22;6870;50.944;6.932;2024-01-06T05:17:03;20.10;39.40
7341;DHT22;6870;50.944;6.932;2024-01-06T05:19:32;20.20;39.50
7341;DHT22;6870;50.944;6.932;2024-01-06T05:22:00;19.90;38.20
7341;DHT22;6870;50.944;6.932;2024-01-06T05:24:29;20.00;38.80
7341;DHT22;6870;50.944;6.932;2024-01-06T05:26:57;20.30;39.20
7341;DHT22;6870;50.944;6.932;2024-01-06T05:29:25;20.40;39.40
7341;DHT22;6870;50.944;6.932;2024-01-06T05:31:53;20.00;39.30
7341;DHT22;6870;50.944;6.932;2024-01-06T05:34:23;20.40;39.70
7341;DHT22;6870;50.944;6.932;2024-01-06T05:36:51;20.20;39.60
7341;DHT22;6870;50.944;6.932;2024-01-06T05:39:19;20.20;39.20
7341;DHT22;6870;50.944;6.932;2024-01-06T05:41:47;20.30;39.70
7341;DHT22;6870;50.944;6.932;2024-01-06T05:44:15;20.10;38.90
7341;DHT22;6870;50.944;6.932;2024-01-06T05:46:43;20.10;39.30
7341;DHT22;6870;50.944;6.932;2024-01-06T05:49:11;20.20;40.00
7341;DHT22;6870;50.944;6.932;2024-01-06T05:51:45;20.20;39.30
7341;DHT22;6870;50.944;6.932;2024-01-06T05:54:13;20.20;40.10
7341;DHT22;6870;50.944;6.932;2024-01-06T05:56:42;20.10;39.70
7341;DHT22;6870;50.944;6.932;2024-01-06T05:59:10;20.10;39.60
7341;DHT22;6870;50.944;6.932;2024-01-06T06:01:38;20.10;39.70
7341;DHT22;6870;50.944;6.932;2024-01-06T06:04:06;20.20;40.30
7341;DHT22;6870;50.944;6.932;2024-01-06T06:06:34;20.20;40.30
7341;DHT22;6870;50.944;6.932;2024-01-06T06:09:03;19.80;39.80
7341;DHT22;6870;50.944;6.932;2024-01-06T06:11:33;19.70;40.10
7341;DHT22;6870;50.944;6.932;2024-01-06T06:14:01;19.90;40.30
7341;DHT22;6870;50.944;6.932;2024-01-06T06:16:29;19.90;39.90
7341;DHT22;6870;50.944;6.932;2024-01-06T06:18:57;20.00;40.70
7341;DHT22;6870;50.944;6.932;2024-01-06T06:21:26;20.10;40.50
7341;DHT22;6870;50.944;6.932;2024-01-06T06:23:54;20.00;41.70
7341;DHT22;6870;50.944;6.932;2024-01-06T06:26:23;19.60;40.30
7341;DHT22;6870;50.944;6.932;2024-01-06T06:28:51;20.10;40.90
7341;DHT22;6870;50.944;6.932;2024-01-06T06:31:19;19.80;40.90
7341;DHT22;6870;50.944;6.932;2024-01-06T06:33:47;19.90;41.10
7341;DHT22;6870;50.944;6.932;2024-01-06T06:36:16;20.20;41.50
7341;DHT22;6870;50.944;6.932;2024-01-06T06:38:44;20.10;41.40
7341;DHT22;6870;50.944;6.932;2024-01-06T06:41:12;19.70;41.00
7341;DHT22;6870;50.944;6.932;2024-01-06T06:43:41;19.70;40.70
7341;DHT22;6870;50.944;6.932;2024-01-06T06:46:09;19.80;41.40
7341;DHT22;6870;50.944;6.932;2024-01-06T06:48:37;19.80;41.50
7341;DHT22;6870;50.944;6.932;2024-01-06T06:51:07;19.70;41.30
7341;DHT22;6870;50.944;6.932;2024-01-06T06:53:35;19.90;41.30
7341;DHT22;6870;50.944;6.932;2024-01-06T06:56:03;19.70;41.50
7341;DHT22;6870;50.944;6.932;2024-01-06T06:58:31;19.70;41.70
7341;DHT22;6870;50.944;6.932;2024-01-06T07:01:01;19.70;41.20
7341;DHT22;6870;50.944;6.932;2024-01-06T07:03:29;19.90;42.10
7341;DHT22;6870;50.944;6.932;2024-01-06T07:05:57;19.90;41.70
7341;DHT22;6870;50.944;6.932;2024-01-06T07:08:25;19.70;41.60
7341;DHT22;6870;50.944;6.932;2024-01-06T07:10:54;19.90;41.90
7341;DHT22;6870;50.944;6.932;2024-01-06T07:13:22;19.80;42.00
7341;DHT22;6870;50.944;6.932;2024-01-06T07:15:50;19.90;42.00
7341;DHT22;6870;50.944;6.932;2024-01-06T07:18:25;19.70;42.40
7341;DHT22;6870;50.944;6.932;2024-01-06T07:20:53;19.60;42.10
7341;DHT22;6870;50.944;6.932;2024-01-06T07:23:21;19.60;42.40
7341;DHT22;6870;50.944;6.932;2024-01-06T07:25:49;19.70;42.50
7341;DHT22;6870;50.944;6.932;2024-01-06T07:28:17;19.40;42.00
7341;DHT22;6870;50.944;6.932;2024-01-06T07:30:45;19.70;42.50
7341;DHT22;6870;50.944;6.932;2024-01-06T07:33:13;19.50;42.30
7341;DHT22;6870;50.944;6.932;2024-01-06T07:35:43;19.50;42.50
7341;DHT22;6870;50.944;6.932;2024-01-06T07:38:11;19.70;43.00
7341;DHT22;6870;50.944;6.932;2024-01-06T07:40:40;19.70;42.90
7341;DHT22;6870;50.944;6.932;2024-01-06T07:43:08;19.50;42.80
7341;DHT22;6870;50.944;6.932;2024-01-06T07:45:36;19.70;42.70
7341;DHT22;6870;50.944;6.932;2024-01-06T07:48:06;19.70;42.90
7341;DHT22;6870;50.944;6.932;2024-01-06T07:50:34;19.60;43.20
7341;DHT22;6870;50.944;6.932;2024-01-06T07:53:03;19.80;43.20
7341;DHT22;6870;50.944;6.932;2024-01-06T07:55:31;19.50;43.10
7341;DHT22;6870;50.944;6.932;2024-01-06T07:58:00;19.50;43.30
7341;DHT22;6870;50.944;6.932;2024-01-06T08:00:28;19.50;43.30
7341;DHT22;6870;50.944;6.932;2024-01-06T08:02:56;19.70;43.40
7341;DHT22;6870;50.944;6.932;2024-01-06T08:05:24;19.60;43.30
7341;DHT22;6870;50.944;6.932;2024-01-06T08:07:52;19.60;43.50
7341;DHT22;6870;50.944;6.932;2024-01-06T08:10:22;19.60;43.90
7341;DHT22;6870;50.944;6.932;2024-01-06T08:12:50;19.50;43.70
7341;DHT22;6870;50.944;6.932;2024-01-06T08:15:18;19.50;43.70
7341;DHT22;6870;50.944;6.932;2024-01-06T08:17:46;19.60;43.70
7341;DHT22;6870;50.944;6.932;2024-01-06T08:20:14;19.60;44.10
7341;DHT22;6870;50.944;6.932;2024-01-06T08:22:42;19.70;44.20
7341;DHT22;6870;50.944;6.932;2024-01-06T08:25:10;19.20;43.70
7341;DHT22;6870;50.944;6.932;2024-01-06T08:27:41;19.80;44.30
7341;DHT22;6870;50.944;6.932;2024-01-06T08:30:10;19.70;44.10
7341;DHT22;6870;50.944;6.932;2024-01-06T08:32:39;19.50;44.20
7341;DHT22;6870;50.944;6.932;2024-01-06T08:35:08;19.60;44.20
7341;DHT22;6870;50.944;6.932;2024-01-06T08:37:37;19.60;44.20
7341;DHT22;6870;50.944;6.932;2024-01-06T08:40:06;19.60;44.40
7341;DHT22;6870;50.944;6.932;2024-01-06T08:42:35;19.70;44.50
7341;DHT22;6870;50.944;6.932;2024-01-06T08:45:05;19.70;44.50
7341;DHT22;6870;50.944;6.932;2024-01-06T08:47:33;19.60;44.20
7341;DHT22;6870;50.944;6.932;2024-01-06T08:50:01;19.70;44.40
7341;DHT22;6870;50.944;6.932;2024-01-06T08:52:31;19.60;44.40
7341;DHT22;6870;50.944;6.932;2024-01-06T08:54:59;19.50;44.20
7341;DHT22;6870;50.944;6.932;2024-01-06T08:57:27;19.40;44.30
7341;DHT22;6870;50.944;6.932;2024-01-06T08:59:55;19.70;44.50
7341;DHT22;6870;50.944;6.932;2024-01-06T09:02:25;19.60;44.30
7341;DHT22;6870;50.944;6.932;2024-01-06T09:04:53;19.60;44.30
7341;DHT22;6870;50.944;6.932;2024-01-06T09:07:21;19.60;44.30
7341;DHT22;6870;50.944;6.932;2024-01-06T09:09:49;19.60;44.30
7341;DHT22;6870;50.944;6.932;2024-01-06T09:12:18;19.70;44.40
7341;DHT22;6870;50.944;6.932;2024-01-06T09:14:47;19.60;44.30
7341;DHT22;6870;50.944;6.932;2024-01-06T09:17:15;19.40;44.10
7341;DHT22;6870;50.944;6.932;2024-01-06T09:19:45;19.60;44.40
7341;DHT22;6870;50.944;6.932;2024-01-06T09:22:14;19.20;43.90
7341;DHT22;6870;50.944;6.932;2024-01-06T09:24:42;19.50;44.30
7341;DHT22;6870;50.944;6.932;2024-01-06T09:27:10;19.70;44.50
7341;DHT22;6870;50.944;6.932;2024-01-06T09:29:39;19.30;44.30
7341;DHT22;6870;50.944;6.932;2024-01-06T09:32:07;19.50;44.30
7341;DHT22;6870;50.944;6.932;2024-01-06T09:34:35;19.60;44.50
7341;DHT22;6870;50.944;6.932;2024-01-06T09:37:07;19.70;44.80
7341;DHT22;6870;50.944;6.932;2024-01-06T09:39:35;19.40;44.40
7341;DHT22;6870;50.944;6.932;2024-01-06T09:42:03;19.40;44.50
7341;DHT22;6870;50.944;6.932;2024-01-06T09:44:32;19.50;44.40
7341;DHT22;6870;50.944;6.932;2024-01-06T09:47:01;19.30;44.30
7341;DHT22;6870;50.944;6.932;2024-01-06T09:49:32;19.10;44.30
7341;DHT22;6870;50.944;6.932;2024-01-06T09:52:04;19.40;45.40
7341;DHT22;6870;50.944;6.932;2024-01-06T09:54:41;19.40;45.40
7341;DHT22;6870;50.944;6.932;2024-01-06T09:57:17;19.50;44.80
7341;DHT22;6870;50.944;6.932;2024-01-06T09:59:45;19.50;44.90
7341;DHT22;6870;50.944;6.932;2024-01-06T10:02:15;19.70;44.50
7341;DHT22;6870;50.944;6.932;2024-01-06T10:04:44;19.80;45.50
7341;DHT22;6870;50.944;6.932;2024-01-06T10:07:13;19.40;45.00
7341;DHT22;6870;50.944;6.932;2024-01-06T10:09:41;19.50;45.10
7341;DHT22;6870;50.944;6.932;2024-01-06T10:12:10;19.60;45.30
7341;DHT22;6870;50.944;6.932;2024-01-06T10:14:38;19.50;45.30
7341;DHT22;6870;50.944;6.932;2024-01-06T10:17:07;19.50;45.30
7341;DHT22;6870;50.944;6.932;2024-01-06T10:19:35;19.60;44.70
7341;DHT22;6870;50.944;6.932;2024-01-06T10:22:05;19.70;45.00
7341;DHT22;6870;50.944;6.932;2024-01-06T10:24:37;19.40;45.20
7341;DHT22;6870;50.944;6.932;2024-01-06T10:27:05;19.40;45.00
7341;DHT22;6870;50.944;6.932;2024-01-06T10:29:35;19.70;45.80
7341;DHT22;6870;50.944;6.932;2024-01-06T10:32:04;19.40;45.50
7341;DHT22;6870;50.944;6.932;2024-01-06T10:34:33;19.60;45.80
7341;DHT22;6870;50.944;6.932;2024-01-06T10:37:03;19.70;45.60
7341;DHT22;6870;50.944;6.932;2024-01-06T10:39:33;19.70;44.70
7341;DHT22;6870;50.944;6.932;2024-01-06T10:42:06;19.60;44.70
7341;DHT22;6870;50.944;6.932;2024-01-06T10:44:34;19.80;44.50
7341;DHT22;6870;50.944;6.932;2024-01-06T10:47:03;19.50;44.90
7341;DHT22;6870;50.944;6.932;2024-01-06T10:49:32;19.70;45.20
7341;DHT22;6870;50.944;6.932;2024-01-06T10:52:02;19.60;44.30
7341;DHT22;6870;50.944;6.932;2024-01-06T10:54:34;19.70;44.90
7341;DHT22;6870;50.944;6.932;2024-01-06T10:57:05;19.60;44.70
7341;DHT22;6870;50.944;6.932;2024-01-06T10:59:34;19.50;44.60
7341;DHT22;6870;50.944;6.932;2024-01-06T11:02:03;19.70;45.50
7341;DHT22;6870;50.944;6.932;2024-01-06T11:04:32;19.60;44.50
7341;DHT22;6870;50.944;6.932;2024-01-06T11:07:01;19.60;44.40
7341;DHT22;6870;50.944;6.932;2024-01-06T11:09:32;19.30;29.20
7341;DHT22;6870;50.944;6.932;2024-01-06T11:12:04;17.30;27.10
7341;DHT22;6870;50.944;6.932;2024-01-06T11:14:37;16.30;27.50
7341;DHT22;6870;50.944;6.932;2024-01-06T11:17:05;15.50;27.80
7341;DHT22;6870;50.944;6.932;2024-01-06T11:19:43;15.10;28.70
7341;DHT22;6870;50.944;6.932;2024-01-06T11:22:23;15.10;29.30
7341;DHT22;6870;50.944;6.932;2024-01-06T11:24:57;15.20;29.00
7341;DHT22;6870;50.944;6.932;2024-01-06T11:27:32;15.10;28.30
7341;DHT22;6870;50.944;6.932;2024-01-06T11:30:03;14.90;28.20
7341;DHT22;6870;50.944;6.932;2024-01-06T11:32:35;15.10;28.30
7341;DHT22;6870;50.944;6.932;2024-01-06T11:35:07;15.00;28.50
7341;DHT22;6870;50.944;6.932;2024-01-06T11:37:50;15.10;28.50
7341;DHT22;6870;50.944;6.932;2024-01-06T11:40:32;15.20;28.40
7341;DHT22;6870;50.944;6.932;2024-01-06T11:43:03;15.20;27.90
7341;DHT22;6870;50.944;6.932;2024-01-06T11:45:33;16.40;32.90
7341;DHT22;6870;50.944;6.932;2024-01-06T11:48:04;17.30;33.00
7341;DHT22;6870;50.944;6.932;2024-01-06T11:50:36;18.10;32.10
7341;DHT22;6870;50.944;6.932;2024-01-06T11:53:05;18.50;33.10
7341;DHT22;6870;50.944;6.932;2024-01-06T11:55:37;18.60;33.00
7341;DHT22;6870;50.944;6.932;2024-01-06T11:58:06;18.90;32.90
7341;DHT22;6870;50.944;6.932;2024-01-06T12:00:39;19.40;32.00
7341;DHT22;6870;50.944;6.932;2024-01-06T12:03:16;19.30;31.80
7341;DHT22;6870;50.944;6.932;2024-01-06T12:05:59;19.70;33.60
7341;DHT22;6870;50.944;6.932;2024-01-06T12:08:28;19.60;31.80
7341;DHT22;6870;50.944;6.932;2024-01-06T12:11:04;19.60;33.00
7341;DHT22;6870;50.944;6.932;2024-01-06T12:13:32;19.80;33.40
7341;DHT22;6870;50.944;6.932;2024-01-06T12:16:00;19.70;33.40
7341;DHT22;6870;50.944;6.932;2024-01-06T12:18:28;19.90;33.70
7341;DHT22;6870;50.944;6.932;2024-01-06T12:20:56;19.80;33.50
7341;DHT22;6870;50.944;6.932;2024-01-06T12:23:25;20.00;32.20
7341;DHT22;6870;50.944;6.932;2024-01-06T12:25:54;19.80;33.60
7341;DHT22;6870;50.944;6.932;2024-01-06T12:28:24;20.20;33.70
7341;DHT22;6870;50.944;6.932;2024-01-06T12:30:52;20.20;33.20
7341;DHT22;6870;50.944;6.932;2024-01-06T12:33:21;20.50;34.20
7341;DHT22;6870;50.944;6.932;2024-01-06T12:35:49;20.00;33.20
7341;DHT22;6870;50.944;6.932;2024-01-06T12:38:20;20.20;34.10
7341;DHT22;6870;50.944;6.932;2024-01-06T12:40:48;20.50;34.20
7341;DHT22;6870;50.944;6.932;2024-01-06T12:43:17;20.20;34.10
7341;DHT22;6870;50.944;6.932;2024-01-06T12:45:46;20.50;34.40
7341;DHT22;6870;50.944;6.932;2024-01-06T12:48:14;20.40;32.40
7341;DHT22;6870;50.944;6.932;2024-01-06T12:50:43;20.40;33.80
7341;DHT22;6870;50.944;6.932;2024-01-06T12:53:11;20.60;34.20
7341;DHT22;6870;50.944;6.932;2024-01-06T12:56:01;20.50;34.10
7341;DHT22;6870;50.944;6.932;2024-01-06T12:58:29;20.70;34.40
7341;DHT22;6870;50.944;6.932;2024-01-06T13:00:58;20.60;32.80
7341;DHT22;6870;50.944;6.932;2024-01-06T13:03:26;20.40;32.70
7341;DHT22;6870;50.944;6.932;2024-01-06T13:05:54;20.60;34.10
7341;DHT22;6870;50.944;6.932;2024-01-06T13:08:23;20.60;33.70
7341;DHT22;6870;50.944;6.932;2024-01-06T13:10:52;20.70;32.60
7341;DHT22;6870;50.944;6.932;2024-01-06T13:13:20;20.70;34.20
7341;DHT22;6870;50.944;6.932;2024-01-06T13:15:48;20.50;33.40
7341;DHT22;6870;50.944;6.932;2024-01-06T13:18:17;20.70;34.40
7341;DHT22;6870;50.944;6.932;2024-01-06T13:20:46;20.60;33.50
7341;DHT22;6870;50.944;6.932;2024-01-06T13:23:14;20.60;34.50
7341;DHT22;6870;50.944;6.932;2024-01-06T13:25:42;20.30;34.40
7341;DHT22;6870;50.944;6.932;2024-01-06T13:28:10;20.20;33.30
7341;DHT22;6870;50.944;6.932;2024-01-06T13:30:38;20.30;34.50
7341;DHT22;6870;50.944;6.932;2024-01-06T13:33:08;20.40;34.60
7341;DHT22;6870;50.944;6.932;2024-01-06T13:35:38;20.30;35.30
7341;DHT22;6870;50.944;6.932;2024-01-06T13:38:06;20.50;34.40
7341;DHT22;6870;50.944;6.932;2024-01-06T13:40:35;20.40;34.50
7341;DHT22;6870;50.944;6.932;2024-01-06T13:43:03;20.10;33.90
7341;DHT22;6870;50.944;6.932;2024-01-06T13:45:33;20.20;34.80
7341;DHT22;6870;50.944;6.932;2024-01-06T13:48:01;20.30;34.30
7341;DHT22;6870;50.944;6.932;2024-01-06T13:50:35;20.10;35.10
7341;DHT22;6870;50.944;6.932;2024-01-06T13:53:05;20.30;34.60
7341;DHT22;6870;50.944;6.932;2024-01-06T13:55:33;20.20;34.70
7341;DHT22;6870;50.944;6.932;2024-01-06T13:58:02;19.90;34.30
7341;DHT22;6870;50.944;6.932;2024-01-06T14:00:30;20.20;35.50
7341;DHT22;6870;50.944;6.932;2024-01-06T14:02:59;20.10;35.10
7341;DHT22;6870;50.944;6.932;2024-01-06T14:05:27;20.20;35.30
7341;DHT22;6870;50.944;6.932;2024-01-06T14:07:55;20.10;35.50
7341;DHT22;6870;50.944;6.932;2024-01-06T14:10:25;20.20;35.70
7341;DHT22;6870;50.944;6.932;2024-01-06T14:12:53;20.40;35.40
7341;DHT22;6870;50.944;6.932;2024-01-06T14:15:21;19.80;35.20
7341;DHT22;6870;50.944;6.932;2024-01-06T14:17:49;20.00;36.30
7341;DHT22;6870;50.944;6.932;2024-01-06T14:20:18;19.70;35.50
7341;DHT22;6870;50.944;6.932;2024-01-06T14:22:47;19.90;35.80
7341;DHT22;6870;50.944;6.932;2024-01-06T14:25:16;19.90;35.80
7341;DHT22;6870;50.944;6.932;2024-01-06T14:27:46;19.90;35.80
7341;DHT22;6870;50.944;6.932;2024-01-06T14:30:15;19.90;35.10
7341;DHT22;6870;50.944;6.932;2024-01-06T14:32:43;20.00;35.20
7341;DHT22;6870;50.944;6.932;2024-01-06T14:35:11;19.70;35.00
7341;DHT22;6870;50.944;6.932;2024-01-06T14:37:41;20.00;36.00
7341;DHT22;6870;50.944;6.932;2024-01-06T14:40:11;19.80;35.90
7341;DHT22;6870;50.944;6.932;2024-01-06T14:42:40;19.80;35.90
7341;DHT22;6870;50.944;6.932;2024-01-06T14:45:09;20.00;36.10
7341;DHT22;6870;50.944;6.932;2024-01-06T14:47:39;19.90;35.70
7341;DHT22;6870;50.944;6.932;2024-01-06T14:50:08;19.70;35.90
7341;DHT22;6870;50.944;6.932;2024-01-06T14:52:36;19.60;35.50
7341;DHT22;6870;50.944;6.932;2024-01-06T14:55:05;19.70;36.00
7341;DHT22;6870;50.944;6.932;2024-01-06T14:57:33;19.70;36.50
7341;DHT22;6870;50.944;6.932;2024-01-06T15:00:02;19.60;35.40
7341;DHT22;6870;50.944;6.932;2024-01-06T15:02:31;19.90;36.30
7341;DHT22;6870;50.944;6.932;2024-01-06T15:05:00;19.70;36.20
7341;DHT22;6870;50.944;6.932;2024-01-06T15:07:28;19.70;35.90
7341;DHT22;6870;50.944;6.932;2024-01-06T15:12:30;19.70;35.50
7341;DHT22;6870;50.944;6.932;2024-01-06T15:14:59;19.60;35.90
7341;DHT22;6870;50.944;6.932;2024-01-06T15:17:27;19.60;36.30
7341;DHT22;6870;50.944;6.932;2024-01-06T15:19:56;19.60;36.30
7341;DHT22;6870;50.944;6.932;2024-01-06T15:22:24;19.50;35.70
7341;DHT22;6870;50.944;6.932;2024-01-06T15:24:52;19.70;36.00
7341;DHT22;6870;50.944;6.932;2024-01-06T15:27:24;19.60;35.80
7341;DHT22;6870;50.944;6.932;2024-01-06T15:29:52;19.80;36.10
7341;DHT22;6870;50.944;6.932;2024-01-06T15:32:20;19.60;36.40
7341;DHT22;6870;50.944;6.932;2024-01-06T15:34:48;19.70;36.20
7341;DHT22;6870;50.944;6.932;2024-01-06T15:37:18;19.70;36.50
7341;DHT22;6870;50.944;6.932;2024-01-06T15:39:46;19.70;36.30
7341;DHT22;6870;50.944;6.932;2024-01-06T15:42:14;19.60;36.50
7341;DHT22;6870;50.944;6.932;2024-01-06T15:44:42;19.50;35.60
7341;DHT22;6870;50.944;6.932;2024-01-06T15:47:10;19.60;35.80
7341;DHT22;6870;50.944;6.932;2024-01-06T15:49:38;19.40;36.50
7341;DHT22;6870;50.944;6.932;2024-01-06T15:52:07;19.60;36.20
7341;DHT22;6870;50.944;6.932;2024-01-06T15:54:36;19.50;36.20
7341;DHT22;6870;50.944;6.932;2024-01-06T15:57:04;19.50;36.00
7341;DHT22;6870;50.944;6.932;2024-01-06T15:59:32;19.80;36.40
7341;DHT22;6870;50.944;6.932;2024-01-06T16:02:00;19.60;36.70
7341;DHT22;6870;50.944;6.932;2024-01-06T16:04:29;19.50;36.10
7341;DHT22;6870;50.944;6.932;2024-01-06T16:06:57;19.70;36.60
7341;DHT22;6870;50.944;6.932;2024-01-06T16:09:25;19.70;36.60
7341;DHT22;6870;50.944;6.932;2024-01-06T16:11:55;19.50;36.50
7341;DHT22;6870;50.944;6.932;2024-01-06T16:14:24;19.40;36.60